sensor_id;sensor_type;location;lat;lon;timestamp;P1;durP1;ratioP1;P2;durP2;ratioP2
71038;SDS011;58692;43.212;27.908;2023-04-06T00:00:30;15.48;;;7.80;;
71038;SDS011;58692;43.212;27.908;2023-04-06T00:02:56;14.67;;;8.10;;
71038;SDS011;58692;43.212;27.908;2023-04-06T00:05:21;15.57;;;7.63;;
71038;SDS011;58692;43.212;27.908;2023-04-06T00:07:47;14.90;;;7.80;;
71038;SDS011;58692;43.212;27.908;2023-04-06T00:10:13;15.77;;;7.57;;
71038;SDS011;58692;43.212;27.908;2023-04-06T00:12:39;14.20;;;7.22;;
71038;SDS011;58692;43.212;27.908;2023-04-06T00:15:04;14.83;;;8.00;;
71038;SDS011;58692;43.212;27.908;2023-04-06T00:17:31;15.27;;;8.00;;
71038;SDS011;58692;43.212;27.908;2023-04-06T00:19:56;15.77;;;6.93;;
71038;SDS011;58692;43.212;27.908;2023-04-06T00:22:22;13.20;;;6.80;;
71038;SDS011;58692;43.212;27.908;2023-04-06T00:24:47;14.07;;;7.57;;
71038;SDS011;58692;43.212;27.908;2023-04-06T00:27:12;14.33;;;7.70;;
71038;SDS011;58692;43.212;27.908;2023-04-06T00:29:39;16.77;;;7.93;;
71038;SDS011;58692;43.212;27.908;2023-04-06T00:32:05;19.55;;;8.35;;
71038;SDS011;58692;43.212;27.908;2023-04-06T00:34:30;15.98;;;7.68;;
71038;SDS011;58692;43.212;27.908;2023-04-06T00:36:56;17.17;;;8.20;;
71038;SDS011;58692;43.212;27.908;2023-04-06T00:39:21;16.30;;;8.10;;
71038;SDS011;58692;43.212;27.908;2023-04-06T00:41:49;16.67;;;8.13;;
71038;SDS011;58692;43.212;27.908;2023-04-06T00:44:16;15.63;;;8.35;;
71038;SDS011;58692;43.212;27.908;2023-04-06T00:46:41;16.00;;;7.93;;
71038;SDS011;58692;43.212;27.908;2023-04-06T00:49:07;15.00;;;7.55;;
71038;SDS011;58692;43.212;27.908;2023-04-06T00:51:32;14.83;;;7.83;;
71038;SDS011;58692;43.212;27.908;2023-04-06T00:53:58;17.42;;;8.35;;
71038;SDS011;58692;43.212;27.908;2023-04-06T00:56:24;14.27;;;7.43;;
71038;SDS011;58692;43.212;27.908;2023-04-06T00:58:52;16.33;;;7.75;;
71038;SDS011;58692;43.212;27.908;2023-04-06T01:01:18;15.53;;;7.30;;
71038;SDS011;58692;43.212;27.908;2023-04-06T01:03:43;14.48;;;6.88;;
71038;SDS011;58692;43.212;27.908;2023-04-06T01:06:12;13.25;;;7.07;;
71038;SDS011;58692;43.212;27.908;2023-04-06T01:08:38;11.93;;;6.47;;
71038;SDS011;58692;43.212;27.908;2023-04-06T01:11:03;12.50;;;6.13;;
71038;SDS011;58692;43.212;27.908;2023-04-06T01:13:29;12.55;;;6.55;;
71038;SDS011;58692;43.212;27.908;2023-04-06T01:15:54;12.80;;;6.40;;
71038;SDS011;58692;43.212;27.908;2023-04-06T01:18:25;12.55;;;6.15;;
71038;SDS011;58692;43.212;27.908;2023-04-06T01:20:51;11.00;;;5.53;;
71038;SDS011;58692;43.212;27.908;2023-04-06T01:23:17;9.88;;;5.38;;
71038;SDS011;58692;43.212;27.908;2023-04-06T01:25:42;12.07;;;5.77;;
71038;SDS011;58692;43.212;27.908;2023-04-06T01:28:08;11.70;;;6.22;;
71038;SDS011;58692;43.212;27.908;2023-04-06T01:30:34;12.40;;;6.03;;
71038;SDS011;58692;43.212;27.908;2023-04-06T01:33:00;11.70;;;5.63;;
71038;SDS011;58692;43.212;27.908;2023-04-06T01:35:26;9.83;;;5.63;;
71038;SDS011;58692;43.212;27.908;2023-04-06T01:37:52;13.40;;;6.03;;
71038;SDS011;58692;43.212;27.908;2023-04-06T01:40:18;11.00;;;5.88;;
71038;SDS011;58692;43.212;27.908;2023-04-06T01:42:44;11.23;;;5.47;;
71038;SDS011;58692;43.212;27.908;2023-04-06T01:45:09;11.88;;;5.93;;
71038;SDS011;58692;43.212;27.908;2023-04-06T01:47:35;11.47;;;5.70;;
71038;SDS011;58692;43.212;27.908;2023-04-06T01:50:01;10.70;;;5.63;;
71038;SDS011;58692;43.212;27.908;2023-04-06T01:52:27;12.07;;;5.85;;
71038;SDS011;58692;43.212;27.908;2023-04-06T01:54:53;10.13;;;5.67;;
71038;SDS011;58692;43.212;27.908;2023-04-06T01:57:19;11.25;;;6.05;;
71038;SDS011;58692;43.212;27.908;2023-04-06T01:59:45;10.88;;;5.75;;
71038;SDS011;58692;43.212;27.908;2023-04-06T02:02:10;10.83;;;6.10;;
71038;SDS011;58692;43.212;27.908;2023-04-06T02:04:37;11.38;;;6.05;;
71038;SDS011;58692;43.212;27.908;2023-04-06T02:07:03;11.10;;;5.93;;
71038;SDS011;58692;43.212;27.908;2023-04-06T02:09:29;11.43;;;5.97;;
71038;SDS011;58692;43.212;27.908;2023-04-06T02:11:54;11.03;;;6.23;;
71038;SDS011;58692;43.212;27.908;2023-04-06T02:14:20;12.68;;;6.20;;
71038;SDS011;58692;43.212;27.908;2023-04-06T02:16:46;11.57;;;6.07;;
71038;SDS011;58692;43.212;27.908;2023-04-06T02:19:12;10.38;;;5.82;;
71038;SDS011;58692;43.212;27.908;2023-04-06T02:21:37;11.90;;;6.27;;
71038;SDS011;58692;43.212;27.908;2023-04-06T02:24:03;11.10;;;5.70;;
71038;SDS011;58692;43.212;27.908;2023-04-06T02:26:28;13.65;;;6.30;;
71038;SDS011;58692;43.212;27.908;2023-04-06T02:28:54;12.85;;;6.40;;
71038;SDS011;58692;43.212;27.908;2023-04-06T02:31:20;13.93;;;6.77;;
71038;SDS011;58692;43.212;27.908;2023-04-06T02:33:45;10.70;;;6.13;;
71038;SDS011;58692;43.212;27.908;2023-04-06T02:36:11;14.50;;;6.73;;
71038;SDS011;58692;43.212;27.908;2023-04-06T02:38:36;11.57;;;6.45;;
71038;SDS011;58692;43.212;27.908;2023-04-06T02:41:02;13.67;;;6.50;;
71038;SDS011;58692;43.212;27.908;2023-04-06T02:43:27;11.27;;;5.93;;
71038;SDS011;58692;43.212;27.908;2023-04-06T02:45:53;11.93;;;6.18;;
71038;SDS011;58692;43.212;27.908;2023-04-06T02:48:18;12.50;;;6.30;;
71038;SDS011;58692;43.212;27.908;2023-04-06T02:50:44;12.33;;;6.17;;
71038;SDS011;58692;43.212;27.908;2023-04-06T02:53:09;12.32;;;6.40;;
71038;SDS011;58692;43.212;27.908;2023-04-06T02:55:35;12.27;;;6.33;;
71038;SDS011;58692;43.212;27.908;2023-04-06T02:58:00;13.40;;;6.90;;
71038;SDS011;58692;43.212;27.908;2023-04-06T03:00:26;13.82;;;6.78;;
71038;SDS011;58692;43.212;27.908;2023-04-06T03:02:51;13.23;;;6.70;;
71038;SDS011;58692;43.212;27.908;2023-04-06T03:05:17;14.03;;;7.50;;
71038;SDS011;58692;43.212;27.908;2023-04-06T03:07:42;14.90;;;8.17;;
71038;SDS011;58692;43.212;27.908;2023-04-06T03:10:08;16.20;;;8.93;;
71038;SDS011;58692;43.212;27.908;2023-04-06T03:12:34;18.95;;;10.27;;
71038;SDS011;58692;43.212;27.908;2023-04-06T03:15:00;17.02;;;9.35;;
71038;SDS011;58692;43.212;27.908;2023-04-06T03:17:25;21.80;;;12.77;;
71038;SDS011;58692;43.212;27.908;2023-04-06T03:19:51;22.63;;;11.97;;
71038;SDS011;58692;43.212;27.908;2023-04-06T03:22:16;25.93;;;13.40;;
71038;SDS011;58692;43.212;27.908;2023-04-06T03:24:42;25.73;;;16.03;;
71038;SDS011;58692;43.212;27.908;2023-04-06T03:27:07;34.17;;;19.20;;
71038;SDS011;58692;43.212;27.908;2023-04-06T03:29:33;25.90;;;14.90;;
71038;SDS011;58692;43.212;27.908;2023-04-06T03:31:58;18.35;;;11.05;;
71038;SDS011;58692;43.212;27.908;2023-04-06T03:34:24;16.73;;;9.40;;
71038;SDS011;58692;43.212;27.908;2023-04-06T03:36:49;18.15;;;8.98;;
71038;SDS011;58692;43.212;27.908;2023-04-06T03:39:15;17.10;;;8.93;;
71038;SDS011;58692;43.212;27.908;2023-04-06T03:41:41;16.60;;;8.60;;
71038;SDS011;58692;43.212;27.908;2023-04-06T03:44:06;15.18;;;8.68;;
71038;SDS011;58692;43.212;27.908;2023-04-06T03:46:32;17.43;;;9.60;;
71038;SDS011;58692;43.212;27.908;2023-04-06T03:48:57;17.57;;;9.23;;
71038;SDS011;58692;43.212;27.908;2023-04-06T03:51:23;15.80;;;9.38;;
71038;SDS011;58692;43.212;27.908;2023-04-06T03:53:48;19.77;;;10.20;;
71038;SDS011;58692;43.212;27.908;2023-04-06T03:56:13;19.03;;;10.67;;
71038;SDS011;58692;43.212;27.908;2023-04-06T03:58:39;18.00;;;11.57;;
71038;SDS011;58692;43.212;27.908;2023-04-06T04:01:05;20.97;;;11.33;;
71038;SDS011;58692;43.212;27.908;2023-04-06T04:03:30;19.83;;;11.50;;
71038;SDS011;58692;43.212;27.908;2023-04-06T04:05:56;20.23;;;11.60;;
71038;SDS011;58692;43.212;27.908;2023-04-06T04:08:21;20.67;;;12.07;;
71038;SDS011;58692;43.212;27.908;2023-04-06T04:10:47;21.23;;;11.27;;
71038;SDS011;58692;43.212;27.908;2023-04-06T04:13:12;22.17;;;12.17;;
71038;SDS011;58692;43.212;27.908;2023-04-06T04:15:38;19.93;;;12.60;;
71038;SDS011;58692;43.212;27.908;2023-04-06T04:18:03;22.37;;;12.53;;
71038;SDS011;58692;43.212;27.908;2023-04-06T04:20:29;23.23;;;12.47;;
71038;SDS011;58692;43.212;27.908;2023-04-06T04:22:54;22.37;;;13.30;;
71038;SDS011;58692;43.212;27.908;2023-04-06T04:25:20;20.35;;;11.80;;
71038;SDS011;58692;43.212;27.908;2023-04-06T04:27:46;21.30;;;10.87;;
71038;SDS011;58692;43.212;27.908;2023-04-06T04:30:11;19.25;;;10.48;;
71038;SDS011;58692;43.212;27.908;2023-04-06T04:32:37;21.40;;;10.83;;
71038;SDS011;58692;43.212;27.908;2023-04-06T04:35:03;24.05;;;12.68;;
71038;SDS011;58692;43.212;27.908;2023-04-06T04:37:31;28.90;;;13.50;;
71038;SDS011;58692;43.212;27.908;2023-04-06T04:40:00;22.45;;;11.48;;
71038;SDS011;58692;43.212;27.908;2023-04-06T04:42:26;21.88;;;11.50;;
71038;SDS011;58692;43.212;27.908;2023-04-06T04:44:52;20.77;;;10.77;;
71038;SDS011;58692;43.212;27.908;2023-04-06T04:47:18;17.60;;;10.02;;
71038;SDS011;58692;43.212;27.908;2023-04-06T04:49:44;21.10;;;9.57;;
71038;SDS011;58692;43.212;27.908;2023-04-06T04:52:09;19.35;;;10.23;;
71038;SDS011;58692;43.212;27.908;2023-04-06T04:54:35;21.97;;;10.63;;
71038;SDS011;58692;43.212;27.908;2023-04-06T04:57:00;20.83;;;10.63;;
71038;SDS011;58692;43.212;27.908;2023-04-06T04:59:26;19.43;;;11.07;;
71038;SDS011;58692;43.212;27.908;2023-04-06T05:01:52;20.50;;;11.23;;
71038;SDS011;58692;43.212;27.908;2023-04-06T05:04:17;20.52;;;10.10;;
71038;SDS011;58692;43.212;27.908;2023-04-06T05:06:43;20.57;;;11.00;;
71038;SDS011;58692;43.212;27.908;2023-04-06T05:09:08;22.58;;;11.38;;
71038;SDS011;58692;43.212;27.908;2023-04-06T05:11:34;21.03;;;11.20;;
71038;SDS011;58692;43.212;27.908;2023-04-06T05:14:00;23.05;;;11.18;;
71038;SDS011;58692;43.212;27.908;2023-04-06T05:16:25;18.40;;;10.23;;
71038;SDS011;58692;43.212;27.908;2023-04-06T05:18:51;21.25;;;11.00;;
71038;SDS011;58692;43.212;27.908;2023-04-06T05:21:18;22.90;;;11.60;;
71038;SDS011;58692;43.212;27.908;2023-04-06T05:23:47;19.77;;;11.27;;
71038;SDS011;58692;43.212;27.908;2023-04-06T05:26:15;20.55;;;11.07;;
71038;SDS011;58692;43.212;27.908;2023-04-06T05:28:44;18.88;;;10.65;;
71038;SDS011;58692;43.212;27.908;2023-04-06T05:31:10;18.00;;;9.88;;
71038;SDS011;58692;43.212;27.908;2023-04-06T05:33:36;22.27;;;10.50;;
71038;SDS011;58692;43.212;27.908;2023-04-06T05:36:02;21.05;;;10.45;;
71038;SDS011;58692;43.212;27.908;2023-04-06T05:38:30;19.73;;;10.32;;
71038;SDS011;58692;43.212;27.908;2023-04-06T05:40:58;22.73;;;10.38;;
71038;SDS011;58692;43.212;27.908;2023-04-06T05:43:24;22.50;;;10.50;;
71038;SDS011;58692;43.212;27.908;2023-04-06T05:45:49;21.00;;;11.07;;
71038;SDS011;58692;43.212;27.908;2023-04-06T05:48:15;19.67;;;10.77;;
71038;SDS011;58692;43.212;27.908;2023-04-06T05:50:41;16.93;;;9.63;;
71038;SDS011;58692;43.212;27.908;2023-04-06T05:53:06;18.85;;;9.18;;
71038;SDS011;58692;43.212;27.908;2023-04-06T05:55:32;18.13;;;8.97;;
71038;SDS011;58692;43.212;27.908;2023-04-06T05:57:58;20.00;;;9.50;;
71038;SDS011;58692;43.212;27.908;2023-04-06T06:03:25;21.33;;;10.07;;
71038;SDS011;58692;43.212;27.908;2023-04-06T06:05:51;19.92;;;10.57;;
71038;SDS011;58692;43.212;27.908;2023-04-06T06:08:20;21.52;;;11.55;;
71038;SDS011;58692;43.212;27.908;2023-04-06T06:17:33;17.33;;;9.57;;
71038;SDS011;58692;43.212;27.908;2023-04-06T06:19:59;21.17;;;9.95;;
71038;SDS011;58692;43.212;27.908;2023-04-06T06:22:25;17.67;;;10.07;;
71038;SDS011;58692;43.212;27.908;2023-04-06T06:24:53;21.73;;;10.20;;
71038;SDS011;58692;43.212;27.908;2023-04-06T06:27:19;20.85;;;12.13;;
71038;SDS011;58692;43.212;27.908;2023-04-06T06:29:44;19.07;;;10.10;;
71038;SDS011;58692;43.212;27.908;2023-04-06T06:32:10;18.92;;;10.07;;
71038;SDS011;58692;43.212;27.908;2023-04-06T06:34:36;15.73;;;8.90;;
71038;SDS011;58692;43.212;27.908;2023-04-06T06:37:02;17.63;;;9.53;;
71038;SDS011;58692;43.212;27.908;2023-04-06T06:39:28;18.52;;;9.02;;
71038;SDS011;58692;43.212;27.908;2023-04-06T06:41:59;17.67;;;10.30;;
71038;SDS011;58692;43.212;27.908;2023-04-06T06:44:29;21.67;;;9.90;;
71038;SDS011;58692;43.212;27.908;2023-04-06T06:46:55;18.77;;;10.20;;
71038;SDS011;58692;43.212;27.908;2023-04-06T06:49:20;18.67;;;10.20;;
71038;SDS011;58692;43.212;27.908;2023-04-06T06:54:27;19.13;;;9.50;;
71038;SDS011;58692;43.212;27.908;2023-04-06T06:56:52;16.43;;;9.20;;
71038;SDS011;58692;43.212;27.908;2023-04-06T06:59:19;18.40;;;9.50;;
71038;SDS011;58692;43.212;27.908;2023-04-06T07:01:45;16.65;;;8.75;;
71038;SDS011;58692;43.212;27.908;2023-04-06T07:04:11;14.43;;;8.10;;
71038;SDS011;58692;43.212;27.908;2023-04-06T07:06:36;15.53;;;9.17;;
71038;SDS011;58692;43.212;27.908;2023-04-06T07:09:02;16.75;;;9.63;;
71038;SDS011;58692;43.212;27.908;2023-04-06T07:11:29;15.65;;;8.77;;
71038;SDS011;58692;43.212;27.908;2023-04-06T07:13:55;17.03;;;9.60;;
71038;SDS011;58692;43.212;27.908;2023-04-06T07:16:21;16.17;;;8.68;;
71038;SDS011;58692;43.212;27.908;2023-04-06T07:18:50;16.97;;;9.27;;
71038;SDS011;58692;43.212;27.908;2023-04-06T07:21:16;15.45;;;9.10;;
71038;SDS011;58692;43.212;27.908;2023-04-06T07:23:41;15.13;;;8.70;;
71038;SDS011;58692;43.212;27.908;2023-04-06T07:26:07;18.02;;;8.88;;
71038;SDS011;58692;43.212;27.908;2023-04-06T07:28:32;14.07;;;8.30;;
71038;SDS011;58692;43.212;27.908;2023-04-06T07:31:09;21.92;;;9.88;;
71038;SDS011;58692;43.212;27.908;2023-04-06T07:33:35;17.47;;;9.17;;
71038;SDS011;58692;43.212;27.908;2023-04-06T07:36:09;14.10;;;8.38;;
71038;SDS011;58692;43.212;27.908;2023-04-06T07:38:34;15.00;;;8.63;;
71038;SDS011;58692;43.212;27.908;2023-04-06T07:41:03;13.27;;;8.23;;
71038;SDS011;58692;43.212;27.908;2023-04-06T07:43:31;13.90;;;8.30;;
71038;SDS011;58692;43.212;27.908;2023-04-06T07:45:57;12.65;;;8.48;;
71038;SDS011;58692;43.212;27.908;2023-04-06T07:48:27;13.23;;;8.63;;
71038;SDS011;58692;43.212;27.908;2023-04-06T07:51:00;15.27;;;8.67;;
71038;SDS011;58692;43.212;27.908;2023-04-06T07:53:27;15.23;;;8.32;;
71038;SDS011;58692;43.212;27.908;2023-04-06T07:55:53;18.13;;;8.52;;
71038;SDS011;58692;43.212;27.908;2023-04-06T07:58:19;14.73;;;8.47;;
71038;SDS011;58692;43.212;27.908;2023-04-06T08:03:33;14.80;;;8.40;;
71038;SDS011;58692;43.212;27.908;2023-04-06T08:05:59;13.98;;;8.63;;
71038;SDS011;58692;43.212;27.908;2023-04-06T08:08:25;14.40;;;8.07;;
71038;SDS011;58692;43.212;27.908;2023-04-06T08:10:51;13.33;;;7.93;;
71038;SDS011;58692;43.212;27.908;2023-04-06T08:13:16;14.85;;;8.57;;
71038;SDS011;58692;43.212;27.908;2023-04-06T08:15:43;13.10;;;7.25;;
71038;SDS011;58692;43.212;27.908;2023-04-06T08:18:12;12.63;;;7.67;;
71038;SDS011;58692;43.212;27.908;2023-04-06T08:20:46;12.60;;;7.30;;
71038;SDS011;58692;43.212;27.908;2023-04-06T08:23:11;12.95;;;7.45;;
71038;SDS011;58692;43.212;27.908;2023-04-06T08:25:40;11.93;;;7.60;;
71038;SDS011;58692;43.212;27.908;2023-04-06T08:28:12;14.88;;;8.60;;
71038;SDS011;58692;43.212;27.908;2023-04-06T08:30:41;12.90;;;7.57;;
71038;SDS011;58692;43.212;27.908;2023-04-06T08:33:07;13.98;;;7.55;;
71038;SDS011;58692;43.212;27.908;2023-04-06T08:35:34;11.43;;;6.90;;
71038;SDS011;58692;43.212;27.908;2023-04-06T08:38:02;11.65;;;6.93;;
71038;SDS011;58692;43.212;27.908;2023-04-06T08:40:30;11.43;;;6.97;;
71038;SDS011;58692;43.212;27.908;2023-04-06T08:43:01;13.43;;;7.75;;
71038;SDS011;58692;43.212;27.908;2023-04-06T08:45:37;11.63;;;6.90;;
71038;SDS011;58692;43.212;27.908;2023-04-06T08:48:04;13.60;;;7.80;;
71038;SDS011;58692;43.212;27.908;2023-04-06T08:50:32;10.23;;;6.07;;
71038;SDS011;58692;43.212;27.908;2023-04-06T08:52:58;17.02;;;7.10;;
71038;SDS011;58692;43.212;27.908;2023-04-06T08:55:25;11.35;;;6.50;;
71038;SDS011;58692;43.212;27.908;2023-04-06T08:57:53;11.95;;;7.10;;
71038;SDS011;58692;43.212;27.908;2023-04-06T09:00:20;11.82;;;6.53;;
71038;SDS011;58692;43.212;27.908;2023-04-06T09:02:46;13.00;;;5.80;;
71038;SDS011;58692;43.212;27.908;2023-04-06T09:05:15;11.63;;;5.78;;
71038;SDS011;58692;43.212;27.908;2023-04-06T09:07:41;14.73;;;6.68;;
71038;SDS011;58692;43.212;27.908;2023-04-06T09:10:06;13.35;;;6.97;;
71038;SDS011;58692;43.212;27.908;2023-04-06T09:12:33;12.63;;;6.53;;
71038;SDS011;58692;43.212;27.908;2023-04-06T09:15:00;10.52;;;6.15;;
71038;SDS011;58692;43.212;27.908;2023-04-06T09:17:28;13.98;;;6.93;;
71038;SDS011;58692;43.212;27.908;2023-04-06T09:19:56;10.98;;;5.80;;
71038;SDS011;58692;43.212;27.908;2023-04-06T09:22:22;12.77;;;6.22;;
71038;SDS011;58692;43.212;27.908;2023-04-06T09:24:51;11.73;;;7.23;;
71038;SDS011;58692;43.212;27.908;2023-04-06T09:27:38;12.70;;;6.45;;
71038;SDS011;58692;43.212;27.908;2023-04-06T09:30:10;13.88;;;6.75;;
71038;SDS011;58692;43.212;27.908;2023-04-06T09:32:47;11.25;;;6.32;;
71038;SDS011;58692;43.212;27.908;2023-04-06T09:35:18;13.93;;;7.13;;
71038;SDS011;58692;43.212;27.908;2023-04-06T09:37:46;13.53;;;7.47;;
71038;SDS011;58692;43.212;27.908;2023-04-06T09:40:12;14.40;;;8.07;;
71038;SDS011;58692;43.212;27.908;2023-04-06T09:42:40;15.88;;;9.10;;
71038;SDS011;58692;43.212;27.908;2023-04-06T09:45:07;13.70;;;7.00;;
71038;SDS011;58692;43.212;27.908;2023-04-06T09:47:35;12.57;;;7.03;;
71038;SDS011;58692;43.212;27.908;2023-04-06T09:50:01;13.77;;;6.90;;
71038;SDS011;58692;43.212;27.908;2023-04-06T09:55:17;17.08;;;7.68;;
71038;SDS011;58692;43.212;27.908;2023-04-06T09:57:53;15.15;;;7.85;;
71038;SDS011;58692;43.212;27.908;2023-04-06T10:00:29;12.20;;;6.70;;
71038;SDS011;58692;43.212;27.908;2023-04-06T10:03:10;14.27;;;6.57;;
71038;SDS011;58692;43.212;27.908;2023-04-06T10:05:46;11.70;;;7.20;;
71038;SDS011;58692;43.212;27.908;2023-04-06T10:08:21;15.23;;;6.88;;
71038;SDS011;58692;43.212;27.908;2023-04-06T10:10:53;16.40;;;8.43;;
71038;SDS011;58692;43.212;27.908;2023-04-06T10:13:22;17.20;;;8.07;;
71038;SDS011;58692;43.212;27.908;2023-04-06T10:15:50;14.50;;;8.37;;
71038;SDS011;58692;43.212;27.908;2023-04-06T10:18:17;17.02;;;7.95;;
71038;SDS011;58692;43.212;27.908;2023-04-06T10:23:26;13.40;;;7.80;;
71038;SDS011;58692;43.212;27.908;2023-04-06T10:25:58;13.23;;;7.55;;
71038;SDS011;58692;43.212;27.908;2023-04-06T10:28:33;13.80;;;7.57;;
71038;SDS011;58692;43.212;27.908;2023-04-06T10:31:02;13.95;;;8.07;;
71038;SDS011;58692;43.212;27.908;2023-04-06T10:33:31;13.38;;;7.82;;
71038;SDS011;58692;43.212;27.908;2023-04-06T10:35:57;11.90;;;7.15;;
71038;SDS011;58692;43.212;27.908;2023-04-06T10:41:05;14.27;;;7.90;;
71038;SDS011;58692;43.212;27.908;2023-04-06T10:43:33;14.02;;;8.23;;
71038;SDS011;58692;43.212;27.908;2023-04-06T10:46:02;14.10;;;7.43;;
71038;SDS011;58692;43.212;27.908;2023-04-06T10:51:12;14.00;;;7.38;;
71038;SDS011;58692;43.212;27.908;2023-04-06T10:53:43;17.67;;;8.30;;
71038;SDS011;58692;43.212;27.908;2023-04-06T10:56:11;14.27;;;7.60;;
71038;SDS011;58692;43.212;27.908;2023-04-06T10:58:37;13.98;;;7.07;;
71038;SDS011;58692;43.212;27.908;2023-04-06T11:01:03;20.90;;;8.13;;
71038;SDS011;58692;43.212;27.908;2023-04-06T11:03:29;12.57;;;6.97;;
71038;SDS011;58692;43.212;27.908;2023-04-06T11:05:55;16.13;;;8.43;;
71038;SDS011;58692;43.212;27.908;2023-04-06T11:08:22;13.55;;;6.50;;
71038;SDS011;58692;43.212;27.908;2023-04-06T11:13:45;12.40;;;7.63;;
71038;SDS011;58692;43.212;27.908;2023-04-06T11:16:12;13.60;;;7.10;;
71038;SDS011;58692;43.212;27.908;2023-04-06T11:24:06;13.13;;;7.07;;
71038;SDS011;58692;43.212;27.908;2023-04-06T11:29:18;18.35;;;8.30;;
71038;SDS011;58692;43.212;27.908;2023-04-06T11:31:48;13.80;;;7.20;;
71038;SDS011;58692;43.212;27.908;2023-04-06T11:34:17;15.50;;;8.00;;
71038;SDS011;58692;43.212;27.908;2023-04-06T11:36:44;13.67;;;7.60;;
71038;SDS011;58692;43.212;27.908;2023-04-06T11:39:11;12.75;;;7.28;;
71038;SDS011;58692;43.212;27.908;2023-04-06T11:41:38;15.68;;;7.13;;
71038;SDS011;58692;43.212;27.908;2023-04-06T11:44:06;11.45;;;6.78;;
71038;SDS011;58692;43.212;27.908;2023-04-06T11:46:32;11.83;;;7.00;;
71038;SDS011;58692;43.212;27.908;2023-04-06T11:48:58;13.63;;;6.90;;
71038;SDS011;58692;43.212;27.908;2023-04-06T11:51:25;13.33;;;6.63;;
71038;SDS011;58692;43.212;27.908;2023-04-06T11:53:52;14.88;;;7.53;;
71038;SDS011;58692;43.212;27.908;2023-04-06T11:56:25;12.63;;;7.72;;
71038;SDS011;58692;43.212;27.908;2023-04-06T11:58:53;11.30;;;6.53;;
71038;SDS011;58692;43.212;27.908;2023-04-06T12:01:20;14.88;;;7.10;;
71038;SDS011;58692;43.212;27.908;2023-04-06T12:06:58;14.23;;;7.17;;
71038;SDS011;58692;43.212;27.908;2023-04-06T12:09:33;13.77;;;6.95;;
71038;SDS011;58692;43.212;27.908;2023-04-06T12:12:13;12.23;;;6.75;;
71038;SDS011;58692;43.212;27.908;2023-04-06T12:14:39;13.80;;;7.10;;
71038;SDS011;58692;43.212;27.908;2023-04-06T12:17:07;14.18;;;7.00;;
71038;SDS011;58692;43.212;27.908;2023-04-06T12:19:33;12.87;;;7.13;;
71038;SDS011;58692;43.212;27.908;2023-04-06T12:21:59;17.75;;;7.72;;
71038;SDS011;58692;43.212;27.908;2023-04-06T12:24:25;12.70;;;7.20;;
71038;SDS011;58692;43.212;27.908;2023-04-06T12:26:50;13.13;;;6.70;;
71038;SDS011;58692;43.212;27.908;2023-04-06T12:29:16;13.90;;;6.90;;
71038;SDS011;58692;43.212;27.908;2023-04-06T12:31:42;12.82;;;7.38;;
71038;SDS011;58692;43.212;27.908;2023-04-06T12:34:11;14.47;;;7.30;;
71038;SDS011;58692;43.212;27.908;2023-04-06T12:36:37;14.63;;;7.30;;
71038;SDS011;58692;43.212;27.908;2023-04-06T12:39:03;13.07;;;6.97;;
71038;SDS011;58692;43.212;27.908;2023-04-06T12:41:32;12.50;;;6.75;;
71038;SDS011;58692;43.212;27.908;2023-04-06T12:44:10;14.95;;;7.63;;
71038;SDS011;58692;43.212;27.908;2023-04-06T12:46:36;13.83;;;6.93;;
71038;SDS011;58692;43.212;27.908;2023-04-06T12:49:01;12.25;;;7.03;;
71038;SDS011;58692;43.212;27.908;2023-04-06T12:51:28;12.32;;;6.75;;
71038;SDS011;58692;43.212;27.908;2023-04-06T12:53:54;11.23;;;6.60;;
71038;SDS011;58692;43.212;27.908;2023-04-06T12:56:20;14.77;;;7.35;;
71038;SDS011;58692;43.212;27.908;2023-04-06T12:58:47;11.63;;;6.40;;
71038;SDS011;58692;43.212;27.908;2023-04-06T13:01:13;12.73;;;6.28;;
71038;SDS011;58692;43.212;27.908;2023-04-06T13:03:39;14.37;;;6.37;;
71038;SDS011;58692;43.212;27.908;2023-04-06T13:06:06;14.50;;;7.63;;
71038;SDS011;58692;43.212;27.908;2023-04-06T13:08:33;15.30;;;7.15;;
71038;SDS011;58692;43.212;27.908;2023-04-06T13:10:59;14.17;;;7.60;;
71038;SDS011;58692;43.212;27.908;2023-04-06T13:13:26;13.90;;;7.33;;
71038;SDS011;58692;43.212;27.908;2023-04-06T13:15:54;14.43;;;7.32;;
71038;SDS011;58692;43.212;27.908;2023-04-06T13:18:20;11.98;;;6.93;;
71038;SDS011;58692;43.212;27.908;2023-04-06T13:20:47;15.00;;;7.40;;
71038;SDS011;58692;43.212;27.908;2023-04-06T13:23:13;16.50;;;8.67;;
71038;SDS011;58692;43.212;27.908;2023-04-06T13:25:39;14.57;;;7.77;;
71038;SDS011;58692;43.212;27.908;2023-04-06T13:28:08;14.60;;;7.45;;
71038;SDS011;58692;43.212;27.908;2023-04-06T13:30:35;11.43;;;6.38;;
71038;SDS011;58692;43.212;27.908;2023-04-06T13:33:00;16.90;;;7.70;;
71038;SDS011;58692;43.212;27.908;2023-04-06T13:35:26;13.98;;;7.15;;
71038;SDS011;58692;43.212;27.908;2023-04-06T13:37:52;13.13;;;7.63;;
71038;SDS011;58692;43.212;27.908;2023-04-06T13:40:18;11.20;;;6.97;;
71038;SDS011;58692;43.212;27.908;2023-04-06T13:42:46;14.52;;;7.20;;
71038;SDS011;58692;43.212;27.908;2023-04-06T13:45:15;12.13;;;7.00;;
71038;SDS011;58692;43.212;27.908;2023-04-06T13:47:41;17.45;;;6.90;;
71038;SDS011;58692;43.212;27.908;2023-04-06T13:50:09;13.80;;;7.88;;
71038;SDS011;58692;43.212;27.908;2023-04-06T13:52:37;12.43;;;7.60;;
71038;SDS011;58692;43.212;27.908;2023-04-06T13:55:02;12.10;;;7.35;;
71038;SDS011;58692;43.212;27.908;2023-04-06T13:57:31;12.38;;;7.38;;
71038;SDS011;58692;43.212;27.908;2023-04-06T13:59:56;12.13;;;6.57;;
71038;SDS011;58692;43.212;27.908;2023-04-06T14:02:22;13.23;;;7.47;;
71038;SDS011;58692;43.212;27.908;2023-04-06T14:04:52;14.52;;;8.20;;
71038;SDS011;58692;43.212;27.908;2023-04-06T14:07:20;14.20;;;8.60;;
71038;SDS011;58692;43.212;27.908;2023-04-06T14:09:47;19.42;;;9.23;;
71038;SDS011;58692;43.212;27.908;2023-04-06T14:12:13;16.03;;;9.03;;
71038;SDS011;58692;43.212;27.908;2023-04-06T14:14:39;15.30;;;8.90;;
71038;SDS011;58692;43.212;27.908;2023-04-06T14:17:05;18.05;;;9.20;;
71038;SDS011;58692;43.212;27.908;2023-04-06T14:19:30;15.17;;;8.43;;
71038;SDS011;58692;43.212;27.908;2023-04-06T14:21:59;14.98;;;9.13;;
71038;SDS011;58692;43.212;27.908;2023-04-06T14:24:25;13.67;;;8.20;;
71038;SDS011;58692;43.212;27.908;2023-04-06T14:26:51;15.95;;;8.40;;
71038;SDS011;58692;43.212;27.908;2023-04-06T14:29:16;15.80;;;8.40;;
71038;SDS011;58692;43.212;27.908;2023-04-06T14:31:46;17.00;;;9.02;;
71038;SDS011;58692;43.212;27.908;2023-04-06T14:34:12;14.90;;;8.25;;
71038;SDS011;58692;43.212;27.908;2023-04-06T14:36:38;14.67;;;8.50;;
71038;SDS011;58692;43.212;27.908;2023-04-06T14:39:04;14.23;;;7.93;;
71038;SDS011;58692;43.212;27.908;2023-04-06T14:41:31;13.23;;;7.97;;
71038;SDS011;58692;43.212;27.908;2023-04-06T14:43:57;13.65;;;7.60;;
71038;SDS011;58692;43.212;27.908;2023-04-06T14:46:23;13.68;;;8.50;;
71038;SDS011;58692;43.212;27.908;2023-04-06T14:48:55;16.40;;;8.70;;
71038;SDS011;58692;43.212;27.908;2023-04-06T14:51:25;16.52;;;8.43;;
71038;SDS011;58692;43.212;27.908;2023-04-06T14:54:07;15.47;;;8.17;;
71038;SDS011;58692;43.212;27.908;2023-04-06T14:56:35;16.23;;;8.10;;